Time;durP1;ratioP1;P1;durP2;ratioP2;P2;SDS_P1;SDS_P2;PMS_P1;PMS_P2;Temp;Humidity;BMP_temperature;BMP_pressure;BME280_temperature;BME280_humidity;BME280_pressure;Samples;Min_cycle;Max_cycle;Signal;HPM_P1;HPM_P2
2022/01/13 00:01:34;;;;;;;0.50;0.50;;;-0.80;99.90;;;-1.10;100.00;102629.94;4910989;29;20597;-81
2022/01/13 00:04:03;;;;;;;0.30;0.30;;;-0.80;99.90;;;-1.10;100.00;102623.06;4927676;29;20246;-80
2022/01/13 00:06:31;;;;;;;0.80;0.80;;;-0.80;99.90;;;-1.12;100.00;102622.00;4895938;29;20211;-82
2022/01/13 00:08:59;;;;;;;0.70;0.70;;;-0.80;99.90;;;-1.16;100.00;102619.00;4896297;29;20215;-82
2022/01/13 00:11:28;;;;;;;0.55;0.55;;;-0.80;99.90;;;-1.22;100.00;102621.94;4930967;29;20223;-81
2022/01/13 00:14:23;;;;;;;2.53;2.35;;;-0.90;99.90;;;-1.17;100.00;102636.25;4911902;29;20235;-81
2022/01/13 00:24:50;;;;;;;0.60;0.60;;;-0.90;99.90;;;-1.27;100.00;102633.59;4928646;29;20191;-81
2022/01/13 00:27:20;;;;;;;0.85;0.85;;;-0.80;99.90;;;-1.36;100.00;102622.34;4925062;29;20207;-80
2022/01/13 00:29:49;;;;;;;0.52;0.52;;;-0.90;99.90;;;-1.34;100.00;102636.38;4924742;29;20207;-81
2022/01/13 00:32:20;;;;;;;0.60;0.60;;;-0.90;99.90;;;-1.32;100.00;102642.59;4895110;29;20221;-81
2022/01/13 00:34:48;;;;;;;0.65;0.65;;;-0.90;99.90;;;-1.21;100.00;102652.31;4927163;29;20223;-80
2022/01/13 00:37:16;;;;;;;0.90;0.90;;;-0.90;99.90;;;-1.19;100.00;102658.56;4910684;29;20223;-80
2022/01/13 00:39:44;;;;;;;0.93;0.85;;;-0.90;99.90;;;-1.25;100.00;102652.81;4897649;29;20211;-80
2022/01/13 00:42:12;;;;;;;0.88;0.80;;;-0.90;99.90;;;-1.34;100.00;102650.25;4927110;29;20207;-82
2022/01/13 00:44:43;;;;;;;0.77;0.77;;;-0.90;99.90;;;-1.36;100.00;102641.41;4911506;29;20211;-81
2022/01/13 00:47:11;;;;;;;0.70;0.70;;;-0.90;99.90;;;-1.41;100.00;102644.38;4928381;29;20692;-82
2022/01/13 00:49:39;;;;;;;0.82;0.82;;;-0.90;99.90;;;-1.39;100.00;102655.78;4933064;29;20211;-81
2022/01/13 00:52:07;;;;;;;1.20;1.05;;;-1.00;99.90;;;-1.40;100.00;102659.16;4896864;29;20216;-81
2022/01/13 00:54:35;;;;;;;0.80;0.80;;;-0.90;99.90;;;-1.37;100.00;102657.75;4910359;29;20207;-81
2022/01/13 00:57:03;;;;;;;0.70;0.70;;;-1.00;99.90;;;-1.43;100.00;102658.88;4927142;29;20219;-80
2022/01/13 00:59:32;;;;;;;0.50;0.50;;;-1.00;99.90;;;-1.32;100.00;102669.47;4913001;29;20207;-81
2022/01/13 01:02:00;;;;;;;0.57;0.57;;;-1.00;99.90;;;-1.26;100.00;102686.44;4911844;29;20206;-81
2022/01/13 01:04:28;;;;;;;0.63;0.63;;;-0.90;99.90;;;-1.21;100.00;102703.34;4901926;29;20235;-80
2022/01/13 01:06:56;;;;;;;0.50;0.50;;;-0.90;99.90;;;-1.17;100.00;102703.75;4916695;29;20207;-80
2022/01/13 01:09:38;;;;;;;0.50;0.50;;;-0.80;99.90;;;-1.17;100.00;102710.63;4930758;29;20207;-81
2022/01/13 01:12:08;;;;;;;0.85;0.68;;;-0.80;99.90;;;-1.16;100.00;102720.25;4901130;29;20211;-80
2022/01/13 01:14:42;;;;;;;0.50;0.50;;;-0.80;99.90;;;-1.17;100.00;102726.22;4916942;29;20226;-81
2022/01/13 01:17:10;;;;;;;0.50;0.50;;;-0.70;99.90;;;-1.07;100.00;102739.28;4898182;29;20229;-82
2022/01/13 01:19:40;;;;;;;0.45;0.45;;;-0.80;99.90;;;-1.14;100.00;102731.69;4886753;29;20202;-80
2022/01/13 01:27:26;;;;;;;0.40;0.40;;;-0.80;99.90;;;-0.83;100.00;102769.19;4928031;29;20215;-81
2022/01/13 01:30:00;;;;;;;0.50;0.50;;;-0.70;99.90;;;-0.90;100.00;102757.31;4881480;29;20220;-81
2022/01/13 01:32:29;;;;;;;0.30;0.30;;;-0.70;99.90;;;-0.91;100.00;102755.50;4887434;29;20210;-81
2022/01/13 01:35:01;;;;;;;0.40;0.40;;;-0.50;99.90;;;-0.78;100.00;102779.22;4916324;29;20215;-80
2022/01/13 01:37:30;;;;;;;0.30;0.30;;;-0.50;99.90;;;-0.78;100.00;102780.91;4887919;29;20219;-80
2022/01/13 01:39:59;;;;;;;0.40;0.40;;;-0.50;99.90;;;-0.73;100.00;102779.66;4884933;29;20211;-80
2022/01/13 01:42:38;;;;;;;0.55;0.55;;;-0.40;99.90;;;-0.77;100.00;102780.16;4888831;29;20207;-81
2022/01/13 01:45:09;;;;;;;0.40;0.40;;;-0.40;99.90;;;-0.73;100.00;102788.34;4911190;29;20234;-82
2022/01/13 01:47:37;;;;;;;0.35;0.35;;;-0.40;99.90;;;-0.69;100.00;102785.28;4883936;29;20237;-82
2022/01/13 01:50:22;;;;;;;0.28;0.28;;;-0.20;99.90;;;-0.72;100.00;102779.78;4928013;29;20203;-82
2022/01/13 01:52:53;;;;;;;0.30;0.30;;;-0.30;99.90;;;-0.72;100.00;102782.41;4912120;29;20238;-82
2022/01/13 01:55:21;;;;;;;0.40;0.40;;;-0.30;99.90;;;-0.74;100.00;102773.53;4901586;29;20222;-82
2022/01/13 01:57:54;;;;;;;0.30;0.30;;;-0.30;99.90;;;-0.70;100.00;102775.66;4870173;29;20632;-83
2022/01/13 02:00:27;;;;;;;0.40;0.40;;;-0.20;99.90;;;-0.67;100.00;102773.34;4885316;29;20195;-82
2022/01/13 02:02:55;;;;;;;0.30;0.30;;;-0.10;99.90;;;-0.62;100.00;102781.53;4867314;29;20238;-83
2022/01/13 02:05:23;;;;;;;0.38;0.38;;;-0.10;99.90;;;-0.61;100.00;102780.78;4902700;29;20207;-82
2022/01/13 02:07:52;;;;;;;0.40;0.40;;;-0.10;99.90;;;-0.62;100.00;102784.16;4885886;29;20219;-82
2022/01/13 02:10:20;;;;;;;0.20;0.20;;;-0.10;99.90;;;-0.60;100.00;102784.28;4885157;29;20215;-82
2022/01/13 02:12:52;;;;;;;0.40;0.40;;;-0.10;99.90;;;-0.52;100.00;102788.50;4867960;29;20223;-82
2022/01/13 02:15:34;;;;;;;0.30;0.30;;;0.00;99.90;;;-0.35;100.00;102798.72;4903547;29;20222;-83
2022/01/13 02:18:06;;;;;;;0.38;0.38;;;0.00;99.90;;;-0.14;100.00;102833.56;4888360;29;20238;-82
2022/01/13 02:20:52;;;;;;;0.20;0.20;;;0.10;99.90;;;0.10;100.00;102851.41;4910106;29;20219;-82
2022/01/13 02:23:37;;;;;;;0.30;0.30;;;0.20;99.90;;;0.16;100.00;102845.81;4882179;29;20239;-82
2022/01/13 02:26:09;;;;;;;0.20;0.20;;;0.30;99.90;;;0.17;100.00;102847.66;4901168;29;20210;-82
2022/01/13 02:28:38;;;;;;;0.30;0.30;;;0.30;99.90;;;0.11;100.00;102853.22;4886326;29;20227;-82
2022/01/13 02:31:06;;;;;;;0.30;0.30;;;0.30;99.90;;;0.15;100.00;102852.72;4868412;29;20219;-82
2022/01/13 02:33:35;;;;;;;0.30;0.30;;;0.40;99.90;;;0.16;100.00;102835.41;4896629;29;20725;-82
2022/01/13 02:36:05;;;;;;;0.30;0.30;;;0.40;99.90;;;0.08;100.00;102820.81;4897857;29;20226;-82
2022/01/13 02:38:33;;;;;;;0.20;0.20;;;0.40;99.90;;;0.13;100.00;102828.25;4901895;29;20232;-82
2022/01/13 02:41:03;;;;;;;0.30;0.30;;;0.40;99.90;;;0.22;100.00;102835.97;4900365;29;20216;-82
2022/01/13 02:43:31;;;;;;;0.20;0.20;;;0.40;99.90;;;0.23;100.00;102837.78;4888704;29;20499;-82
2022/01/13 02:46:18;;;;;;;0.20;0.20;;;0.60;99.90;;;0.15;100.00;102825.78;4898903;29;20208;-82
2022/01/13 02:48:48;;;;;;;0.30;0.30;;;0.50;99.90;;;0.15;100.00;102831.00;4917050;29;20215;-82
2022/01/13 02:51:16;;;;;;;0.30;0.30;;;0.60;99.90;;;0.27;100.00;102830.38;4886518;29;20204;-82
2022/01/13 02:53:44;;;;;;;0.30;0.30;;;0.50;99.90;;;0.25;100.00;102821.53;4901586;29;20253;-82
2022/01/13 02:56:12;;;;;;;1.48;1.48;;;0.50;99.90;;;0.29;100.00;102827.91;4872950;29;20215;-82
2022/01/13 02:58:40;;;;;;;0.20;0.20;;;0.60;99.90;;;0.28;100.00;102832.22;4908345;29;20227;-82
2022/01/13 03:01:08;;;;;;;0.20;0.20;;;0.60;99.90;;;0.27;100.00;102830.38;4870641;29;20219;-82
2022/01/13 03:03:38;;;;;;;0.30;0.30;;;0.60;99.90;;;0.29;100.00;102833.13;4886756;29;20238;-82
2022/01/13 03:06:09;;;;;;;0.15;0.15;;;0.60;99.90;;;0.29;100.00;102836.63;4866769;29;20212;-82
2022/01/13 03:08:42;;;;;;;0.20;0.20;;;0.70;99.90;;;0.39;100.00;102847.88;4869312;29;20203;-82
2022/01/13 03:11:11;;;;;;;0.30;0.30;;;0.70;99.90;;;0.43;100.00;102852.56;4884645;29;20215;-82
2022/01/13 03:13:39;;;;;;;0.30;0.30;;;0.70;99.90;;;0.48;100.00;102853.88;4876805;29;20746;-82
2022/01/13 03:16:14;;;;;;;0.30;0.30;;;0.80;99.90;;;0.49;100.00;102858.31;4879706;29;20214;-82
2022/01/13 03:18:45;;;;;;;0.30;0.30;;;0.80;99.90;;;0.49;100.00;102851.41;4883244;29;20227;-82
2022/01/13 03:21:13;;;;;;;0.40;0.40;;;0.80;99.90;;;0.47;100.00;102849.44;4896414;29;20218;-83
2022/01/13 03:23:42;;;;;;;0.20;0.20;;;0.80;99.90;;;0.43;100.00;102848.25;4896140;29;20239;-82
2022/01/13 03:26:10;;;;;;;0.30;0.30;;;0.80;99.90;;;0.46;100.00;102853.75;4881528;29;20219;-82
2022/01/13 03:28:40;;;;;;;0.30;0.30;;;0.80;99.90;;;0.50;100.00;102858.44;4882569;29;20207;-82
2022/01/13 03:31:08;;;;;;;0.20;0.20;;;0.80;99.90;;;0.52;100.00;102854.28;4901368;29;20214;-82
2022/01/13 03:33:36;;;;;;;0.20;0.20;;;0.90;99.90;;;0.55;100.00;102859.75;4864421;29;20333;-82
2022/01/13 03:36:04;;;;;;;0.20;0.20;;;0.80;99.90;;;0.53;100.00;102852.59;4882812;29;20204;-82
2022/01/13 03:38:32;;;;;;;0.40;0.40;;;0.90;99.90;;;0.49;100.00;102846.19;4864251;29;20235;-82
2022/01/13 03:41:00;;;;;;;0.30;0.30;;;0.90;99.90;;;0.52;100.00;102850.75;4868139;29;20214;-82
2022/01/13 03:43:29;;;;;;;0.30;0.30;;;1.00;99.90;;;0.52;100.00;102853.38;4880380;29;20728;-82
2022/01/13 03:45:57;;;;;;;0.30;0.30;;;0.90;99.90;;;0.51;100.00;102854.16;4903624;29;20227;-82
2022/01/13 03:48:25;;;;;;;0.35;0.35;;;0.90;99.90;;;0.60;100.00;102862.75;4878715;29;20207;-82
2022/01/13 03:50:53;;;;;;;0.30;0.30;;;0.90;99.90;;;0.56;100.00;102847.66;4872629;29;20219;-82
2022/01/13 03:53:27;;;;;;;0.35;0.35;;;0.90;99.90;;;0.57;100.00;102852.06;4890664;29;20241;-82
2022/01/13 03:56:42;;;;;;;0.20;0.20;;;0.90;99.90;;;0.56;100.00;102851.16;4907312;29;20216;-82
2022/01/13 03:59:29;;;;;;;0.20;0.20;;;1.00;99.90;;;0.56;100.00;102852.84;4900185;29;20235;-82
2022/01/13 04:02:15;;;;;;;0.20;0.20;;;1.00;99.90;;;0.55;100.00;102851.03;4922611;29;20211;-82
2022/01/13 04:04:47;;;;;;;0.20;0.20;;;1.00;99.90;;;0.54;100.00;102846.59;4877756;29;20223;-83
2022/01/13 04:07:26;;;;;;;0.40;0.40;;;1.00;99.90;;;0.55;100.00;102853.63;4895357;29;20227;-82
2022/01/13 04:09:53;;;;;;;0.20;0.20;;;1.00;99.90;;;0.54;100.00;102850.13;4878236;29;20215;-82
2022/01/13 04:12:25;;;;;;;0.20;0.20;;;1.00;99.90;;;0.59;100.00;102854.03;4908719;29;20219;-82
2022/01/13 04:15:02;;;;;;;0.20;0.20;;;1.00;99.90;;;0.56;100.00;102855.47;4885571;29;20219;-82
2022/01/13 04:17:30;;;;;;;0.20;0.20;;;1.00;99.90;;;0.58;100.00;102854.81;4869674;29;20219;-82
2022/01/13 04:19:58;;;;;;;0.20;0.20;;;1.00;99.90;;;0.63;100.00;102844.81;4872249;29;20211;-83
2022/01/13 04:22:26;;;;;;;0.20;0.20;;;1.00;99.90;;;0.60;100.00;102832.44;4888298;29;20220;-83
2022/01/13 04:24:54;;;;;;;0.32;0.32;;;1.00;99.90;;;0.62;100.00;102837.78;4869447;29;20223;-83
2022/01/13 04:27:32;;;;;;;0.20;0.20;;;1.00;99.90;;;0.63;100.00;102829.19;4904300;29;20690;-82
2022/01/13 04:32:43;;;;;;;0.30;0.30;;;1.00;99.90;;;0.65;100.00;102825.00;4887708;29;20207;-83
2022/01/13 04:35:18;;;;;;;0.30;0.30;;;1.00;99.90;;;0.62;100.00;102817.84;4871095;29;20231;-83
2022/01/13 04:37:50;;;;;;;0.30;0.30;;;1.00;99.90;;;0.62;100.00;102819.53;4905325;29;20223;-82
2022/01/13 04:40:22;;;;;;;0.30;0.30;;;1.00;99.90;;;0.64;100.00;102828.41;4890248;29;20211;-83
2022/01/13 04:42:55;;;;;;;0.22;0.22;;;1.00;99.90;;;0.68;100.00;102834.78;4912734;29;20223;-83
2022/01/13 04:45:24;;;;;;;0.40;0.40;;;1.00;99.90;;;0.67;100.00;102828.66;4888475;29;20663;-82
2022/01/13 04:47:56;;;;;;;0.20;0.20;;;1.10;99.90;;;0.65;100.00;102822.41;4875503;29;20207;-82
2022/01/13 04:50:25;;;;;;;0.20;0.20;;;1.10;99.90;;;0.68;100.00;102821.75;4900507;29;20211;-82
2022/01/13 04:52:53;;;;;;;0.20;0.20;;;1.10;99.90;;;0.66;100.00;102815.50;4874665;29;20227;-82
2022/01/13 04:55:24;;;;;;;0.25;0.25;;;1.10;99.90;;;0.65;100.00;102822.41;4903708;29;20203;-82
2022/01/13 04:57:53;;;;;;;0.20;0.20;;;1.10;99.90;;;0.73;100.00;102823.06;4890211;29;20215;-82
2022/01/13 05:00:22;;;;;;;0.30;0.30;;;1.10;99.90;;;0.66;100.00;102815.50;4915403;29;20206;-82
2022/01/13 05:02:50;;;;;;;0.20;0.20;;;1.10;99.90;;;0.61;100.00;102812.50;4891816;29;20238;-83
2022/01/13 05:05:19;;;;;;;0.40;0.40;;;1.10;99.90;;;0.61;100.00;102817.72;4886079;29;20206;-83
2022/01/13 05:07:47;;;;;;;0.30;0.30;;;1.10;99.90;;;0.67;100.00;102819.94;4888608;29;20207;-83
2022/01/13 05:10:15;;;;;;;0.20;0.20;;;1.10;99.90;;;0.66;100.00;102813.81;4896437;29;20215;-82
2022/01/13 05:12:46;;;;;;;0.30;0.30;;;1.00;99.90;;;0.59;100.00;102804.56;4917614;29;20218;-82
2022/01/13 05:15:21;;;;;;;0.30;0.30;;;1.00;99.90;;;0.56;100.00;102798.19;4885954;29;20211;-82
2022/01/13 05:20:39;;;;;;;0.20;0.20;;;1.00;99.90;;;0.54;100.00;102795.44;4913043;29;20214;-83
2022/01/13 05:23:11;;;;;;;0.30;0.30;;;1.00;99.90;;;0.53;100.00;102793.63;4906074;29;20227;-82
2022/01/13 05:25:41;;;;;;;0.20;0.20;;;0.90;99.90;;;0.55;100.00;102794.66;4899541;29;20253;-83
2022/01/13 05:28:10;;;;;;;0.30;0.30;;;0.90;99.90;;;0.50;100.00;102788.16;4914745;29;20211;-83
2022/01/13 05:30:40;;;;;;;0.40;0.40;;;0.90;99.90;;;0.47;100.00;102784.34;4906913;29;20203;-84
2022/01/13 05:33:20;;;;;;;0.28;0.28;;;1.00;99.90;;;0.46;100.00;102787.75;4904282;29;20235;-82
2022/01/13 05:35:48;;;;;;;0.17;0.17;;;1.00;99.90;;;0.39;100.00;102777.56;4898887;29;20296;-82
2022/01/13 05:38:16;;;;;;;0.30;0.30;;;0.90;99.90;;;0.31;100.00;102770.00;4900944;29;20228;-82
2022/01/13 05:40:47;;;;;;;0.20;0.20;;;0.90;99.90;;;0.30;100.00;102769.88;4896494;29;20231;-83
2022/01/13 05:43:46;;;;;;;0.20;0.20;;;0.80;99.90;;;0.25;100.00;102766.88;4901443;29;20234;-83
2022/01/13 05:46:37;;;;;;;0.20;0.20;;;0.80;99.90;;;0.19;100.00;102768.94;4887050;29;20206;-83
2022/01/13 05:49:05;;;;;;;0.25;0.25;;;0.70;99.90;;;0.14;100.00;102761.50;4890436;29;20631;-82
2022/01/13 05:51:33;;;;;;;0.28;0.28;;;0.70;99.90;;;-0.06;100.00;102750.22;4894634;29;20211;-82
2022/01/13 05:54:01;;;;;;;0.30;0.30;;;0.60;99.90;;;-0.17;100.00;102755.25;4872409;29;20247;-82
2022/01/13 05:56:30;;;;;;;0.30;0.30;;;0.50;99.90;;;-0.12;100.00;102760.09;4887393;29;20199;-82
2022/01/13 05:58:59;;;;;;;0.30;0.30;;;0.40;99.90;;;-0.09;100.00;102769.84;4888248;29;20297;-82
2022/01/13 06:01:28;;;;;;;0.20;0.20;;;0.40;99.90;;;-0.07;100.00;102779.63;4904362;29;20215;-83
2022/01/13 06:03:56;;;;;;;1.05;1.05;;;0.50;99.90;;;-0.24;100.00;102761.59;4886167;29;20237;-82
2022/01/13 06:06:24;;;;;;;0.30;0.30;;;0.40;99.90;;;-0.26;100.00;102765.75;4911531;29;20211;-82
2022/01/13 06:08:52;;;;;;;0.30;0.30;;;0.40;99.90;;;-0.27;100.00;102768.22;4882768;29;20215;-82
2022/01/13 06:11:22;;;;;;;0.20;0.20;;;0.30;99.90;;;-0.33;100.00;102765.97;4908237;29;20218;-82
2022/01/13 06:13:50;;;;;;;0.20;0.20;;;0.20;99.90;;;-0.39;100.00;102757.63;4893422;29;20232;-82
2022/01/13 06:16:24;;;;;;;0.32;0.32;;;0.20;99.90;;;-0.44;100.00;102762.41;4911165;29;20222;-82
2022/01/13 06:19:03;;;;;;;0.30;0.30;;;0.10;99.90;;;-0.46;100.00;102768.25;4900451;29;20697;-83
2022/01/13 06:22:10;;;;;;;0.25;0.25;;;-0.10;99.90;;;-0.57;100.00;102767.28;4902171;29;20215;-84
2022/01/13 06:24:41;;;;;;;0.20;0.20;;;0.00;99.90;;;-0.55;100.00;102778.72;4904293;29;20254;-82
2022/01/13 06:27:09;;;;;;;0.20;0.20;;;0.30;99.90;;;-0.67;100.00;102762.94;4873242;29;20208;-83
2022/01/13 06:29:37;;;;;;;0.30;0.30;;;-0.10;99.90;;;-0.70;100.00;102767.84;4874759;29;20221;-83
2022/01/13 06:32:10;;;;;;;0.30;0.30;;;-0.20;99.90;;;-0.65;100.00;102782.19;4891557;29;20222;-84
2022/01/13 06:34:39;;;;;;;0.20;0.20;;;-0.40;99.90;;;-0.63;100.00;102791.81;4903000;29;20223;-82
2022/01/13 06:37:06;;;;;;;0.30;0.30;;;-0.20;99.90;;;-0.62;100.00;102799.75;4887328;29;20690;-82
2022/01/13 06:39:35;;;;;;;0.30;0.30;;;-0.10;99.90;;;-0.68;100.00;102800.09;4906102;29;20235;-82
2022/01/13 06:42:03;;;;;;;0.30;0.30;;;-0.20;99.90;;;-0.67;100.00;102809.72;4908950;29;20218;-82
2022/01/13 06:44:31;;;;;;;0.30;0.30;;;-0.20;99.90;;;-0.68;100.00;102817.38;4893397;29;20231;-82
2022/01/13 06:46:59;;;;;;;0.32;0.32;;;-0.20;99.90;;;-0.69;100.00;102832.03;4874116;29;20219;-82
2022/01/13 06:49:29;;;;;;;0.30;0.30;;;-0.20;99.90;;;-0.70;100.00;102835.41;4894229;29;20215;-83
2022/01/13 06:51:58;;;;;;;0.30;0.30;;;-0.30;99.90;;;-0.75;100.00;102834.06;4911099;29;20215;-83
2022/01/13 06:54:27;;;;;;;0.30;0.30;;;-0.30;99.90;;;-0.79;100.00;102834.56;4895217;29;20239;-82
2022/01/13 06:56:55;;;;;;;0.40;0.40;;;-0.30;99.90;;;-0.79;100.00;102844.03;4884740;29;20212;-80
2022/01/13 06:59:23;;;;;;;0.20;0.20;;;-0.30;99.90;;;-0.80;100.00;102850.94;4892589;29;20238;-81
2022/01/13 07:01:51;;;;;;;0.20;0.20;;;-0.30;99.90;;;-0.84;100.00;102850.50;4911495;29;20220;-81
2022/01/13 07:04:19;;;;;;;0.25;0.25;;;-0.30;99.90;;;-0.86;100.00;102865.94;4900798;29;20706;-81
2022/01/13 07:06:47;;;;;;;0.40;0.40;;;-0.40;99.90;;;-0.86;100.00;102867.63;4886444;29;20214;-82
2022/01/13 07:09:18;;;;;;;0.20;0.20;;;-0.40;99.90;;;-0.85;100.00;102866.84;4867465;29;20212;-81
2022/01/13 07:11:46;;;;;;;0.30;0.30;;;-0.30;99.90;;;-0.86;100.00;102884.13;4873960;29;20226;-81
2022/01/13 07:14:15;;;;;;;0.30;0.30;;;-0.40;99.90;;;-0.88;100.00;102885.66;4885617;29;20242;-82
2022/01/13 07:16:44;;;;;;;0.30;0.30;;;-0.40;99.90;;;-0.85;100.00;102890.25;4871602;29;20211;-82
2022/01/13 07:19:14;;;;;;;0.30;0.30;;;-0.40;99.90;;;-0.83;100.00;102892.22;4919740;29;20228;-82
2022/01/13 07:21:44;;;;;;;0.30;0.30;;;-0.40;99.90;;;-0.81;100.00;102900.16;4877305;29;20586;-82
2022/01/13 07:24:12;;;;;;;0.30;0.30;;;-0.40;99.90;;;-0.78;100.00;102905.63;4889079;29;20234;-82
2022/01/13 07:26:41;;;;;;;0.20;0.20;;;-0.40;99.90;;;-0.78;100.00;102908.22;4902152;29;20215;-82
2022/01/13 07:29:09;;;;;;;0.20;0.20;;;-0.40;99.90;;;-0.76;100.00;102915.41;4889045;29;20218;-81
2022/01/13 07:31:38;;;;;;;0.20;0.20;;;-0.30;99.90;;;-0.72;100.00;102924.41;4890603;29;20211;-81
2022/01/13 07:34:06;;;;;;;0.30;0.30;;;-0.30;99.90;;;-0.73;100.00;102933.88;4892521;29;20234;-81
2022/01/13 07:36:37;;;;;;;0.30;0.30;;;-0.30;99.90;;;-0.72;100.00;102929.59;4916885;29;20709;-81
2022/01/13 07:39:07;;;;;;;0.30;0.30;;;-0.20;99.90;;;-0.67;100.00;102936.13;4886314;29;20222;-82
2022/01/13 07:41:37;;;;;;;0.20;0.20;;;-0.20;99.90;;;-0.67;100.00;102939.66;4888839;29;20214;-82
2022/01/13 07:44:06;;;;;;;0.30;0.30;;;-0.20;99.90;;;-0.61;100.00;102948.78;4911277;23;20235;-80
2022/01/13 07:46:35;;;;;;;0.30;0.30;;;-0.20;99.90;;;-0.61;100.00;102954.00;4884147;29;20203;-81
2022/01/13 07:49:03;;;;;;;0.20;0.20;;;-0.20;99.90;;;-0.54;100.00;102967.69;4902130;29;20204;-80
2022/01/13 07:51:31;;;;;;;0.30;0.30;;;-0.20;99.90;;;-0.41;100.00;102983.69;4931293;29;20211;-80
2022/01/13 07:54:01;;;;;;;0.20;0.20;;;-0.10;99.90;;;-0.46;100.00;102969.34;4886655;29;20227;-81
2022/01/13 07:56:29;;;;;;;0.20;0.20;;;-0.10;99.90;;;-0.32;100.00;102986.22;4900859;29;20678;-81
2022/01/13 07:58:57;;;;;;;0.30;0.30;;;-0.10;99.90;;;-0.35;100.00;102980.72;4882097;29;20207;-81
2022/01/13 08:01:25;;;;;;;0.30;0.30;;;0.00;99.90;;;-0.34;100.00;102987.75;4911089;29;20227;-81
2022/01/13 08:03:53;;;;;;;0.20;0.20;;;0.10;99.90;;;-0.35;100.00;102992.03;4890623;29;20228;-81
2022/01/13 08:06:21;;;;;;;0.30;0.30;;;0.10;99.90;;;-0.34;100.00;102992.97;4887530;29;20212;-81
2022/01/13 08:08:49;;;;;;;0.30;0.30;;;0.20;99.90;;;-0.34;100.00;103001.69;4880723;29;20208;-81
2022/01/13 08:11:17;;;;;;;1.85;1.75;;;0.10;99.90;;;-0.35;100.00;102999.84;4884177;29;20219;-80
2022/01/13 08:13:46;;;;;;;0.20;0.20;;;0.20;99.90;;;-0.33;100.00;103003.50;4892392;29;20243;-80
2022/01/13 08:16:16;;;;;;;0.40;0.40;;;0.30;99.90;;;-0.27;100.00;103010.06;4887729;29;20208;-80
2022/01/13 08:21:35;;;;;;;0.47;0.47;;;0.20;99.90;;;-0.26;100.00;103012.78;4916627;29;20232;-80
2022/01/13 08:24:03;;;;;;;0.30;0.30;;;0.30;99.90;;;-0.25;100.00;103008.50;4879328;29;20231;-80
2022/01/13 08:26:32;;;;;;;0.30;0.30;;;0.30;99.90;;;-0.19;100.00;103014.28;4897416;29;20196;-79
2022/01/13 08:29:00;;;;;;;0.40;0.40;;;0.30;99.90;;;-0.15;100.00;103019.00;4884617;29;20210;-80
2022/01/13 08:31:28;;;;;;;0.30;0.30;;;0.30;99.90;;;-0.12;100.00;103016.69;4882819;29;20212;-80
2022/01/13 08:33:56;;;;;;;0.63;0.63;;;0.30;99.90;;;-0.11;100.00;103018.50;4882124;29;20243;-80
2022/01/13 08:36:24;;;;;;;0.63;0.63;;;0.40;99.90;;;-0.23;100.00;103002.69;4897366;29;20215;-79
2022/01/13 08:38:52;;;;;;;0.40;0.40;;;0.40;99.90;;;-0.38;100.00;102993.44;4871020;29;20212;-79
2022/01/13 08:41:21;;;;;;;0.50;0.50;;;0.30;99.90;;;-0.33;100.00;103002.59;4885927;29;20227;-80
2022/01/13 08:43:51;;;;;;;0.80;0.80;;;0.20;99.90;;;-0.28;100.00;103006.53;4928517;28;20239;-78
2022/01/13 08:46:30;;;;;;;0.35;0.35;;;0.20;99.90;;;-0.28;100.00;103008.22;4882571;29;20220;-78
2022/01/13 08:48:58;;;;;;;0.30;0.30;;;0.20;99.90;;;-0.37;100.00;102997.88;4912572;29;20215;-79
2022/01/13 08:51:27;;;;;;;0.20;0.20;;;0.10;99.90;;;-0.38;100.00;103002.16;4897550;29;20211;-80
2022/01/13 08:53:55;;;;;;;0.20;0.20;;;0.10;99.90;;;-0.36;100.00;103000.63;4896233;29;20611;-79
2022/01/13 08:56:23;;;;;;;0.30;0.30;;;0.70;99.90;;;-0.36;100.00;103004.91;4929593;28;20224;-79
2022/01/13 08:58:51;;;;;;;0.30;0.30;;;0.20;99.90;;;-0.23;100.00;103025.16;4884798;29;20211;-79
2022/01/13 09:01:19;;;;;;;0.20;0.20;;;0.20;99.90;;;-0.23;100.00;103020.88;4867807;29;20242;-78
2022/01/13 09:03:48;;;;;;;0.30;0.30;;;0.20;99.90;;;-0.19;100.00;103028.19;4899085;29;20226;-78
2022/01/13 09:06:16;;;;;;;0.30;0.30;;;0.20;99.90;;;-0.27;100.00;103021.38;4931832;29;20210;-78
2022/01/13 09:08:44;;;;;;;0.30;0.30;;;0.20;99.90;;;-0.20;100.00;103025.47;4914693;29;20666;-78
2022/01/13 09:11:12;;;;;;;0.30;0.30;;;0.20;99.90;;;-0.26;100.00;103031.00;4936022;29;20215;-79
2022/01/13 09:13:40;;;;;;;0.20;0.20;;;0.20;99.90;;;-0.10;100.00;103039.47;4916999;29;20246;-78
2022/01/13 09:16:17;;;;;;;0.35;0.35;;;0.20;99.90;;;-0.12;100.00;103038.41;4899288;29;20213;-78
2022/01/13 09:21:16;;;;;;;0.30;0.30;;;0.40;99.90;;;-0.03;100.00;103041.88;4900613;29;20599;-78
2022/01/13 09:23:44;;;;;;;0.30;0.30;;;0.40;99.90;;;-0.09;100.00;103029.97;4882680;29;20238;-78
2022/01/13 09:26:12;;;;;;;0.20;0.20;;;0.40;99.90;;;-0.04;100.00;103040.03;4919523;28;20211;-78
2022/01/13 09:28:40;;;;;;;0.38;0.38;;;0.40;99.90;;;-0.01;100.00;103039.41;4880874;29;20199;-78
2022/01/13 09:31:09;;;;;;;0.40;0.40;;;0.40;99.90;;;-0.05;100.00;103032.09;4919492;29;20223;-78
2022/01/13 09:33:37;;;;;;;0.20;0.20;;;0.50;99.90;;;-0.01;100.00;103034.19;4929700;29;20231;-79
2022/01/13 09:36:08;;;;;;;0.20;0.20;;;0.50;99.90;;;0.02;100.00;103037.13;4894021;29;20661;-79
2022/01/13 09:38:36;;;;;;;0.40;0.40;;;0.50;99.90;;;-0.02;100.00;103035.88;4881230;29;20214;-79
2022/01/13 09:41:05;;;;;;;0.22;0.22;;;0.50;99.90;;;0.05;100.00;103037.41;4904105;29;20219;-79
2022/01/13 09:43:33;;;;;;;0.30;0.30;;;0.50;99.90;;;0.12;100.00;103042.41;4916122;29;20211;-79
2022/01/13 09:46:02;;;;;;;0.30;0.30;;;0.60;99.90;;;0.09;100.00;103034.31;4931139;29;20230;-79
2022/01/13 09:48:31;;;;;;;0.20;0.20;;;0.60;99.90;;;0.26;100.00;103049.78;4923547;28;20208;-79
2022/01/13 09:51:00;;;;;;;0.20;0.20;;;0.60;99.90;;;0.33;100.00;103046.06;4892399;29;20230;-79
2022/01/13 09:53:29;;;;;;;0.88;0.52;;;0.80;99.90;;;0.42;100.00;103046.00;4885147;29;20219;-79
2022/01/13 09:55:57;;;;;;;0.30;0.30;;;0.80;99.90;;;0.51;100.00;103057.25;4880404;29;20218;-79
2022/01/13 09:58:26;;;;;;;0.30;0.30;;;0.80;99.90;;;0.62;100.00;103059.13;4896668;29;20226;-79
2022/01/13 10:00:55;;;;;;;0.20;0.20;;;0.90;99.90;;;0.73;100.00;103057.50;4882348;29;20246;-79
2022/01/13 10:03:28;;;;;;;0.30;0.30;;;1.00;99.90;;;0.66;100.00;103045.59;4909571;28;20215;-79
2022/01/13 10:06:10;;;;;;;0.60;0.60;;;1.10;99.90;;;0.74;100.00;103060.25;4900703;29;20305;-79
2022/01/13 10:08:57;;;;;;;0.30;0.30;;;1.10;99.90;;;0.82;100.00;103064.44;4898181;29;20211;-79
2022/01/13 10:11:52;;;;;;;0.22;0.22;;;1.20;99.90;;;0.81;100.00;103064.31;4886008;29;20211;-79
2022/01/13 10:17:10;;;;;;;0.40;0.40;;;1.20;99.90;;;0.95;100.00;103063.84;4898530;29;20219;-79
2022/01/13 10:19:44;;;;;;;0.30;0.30;;;1.40;99.90;;;0.99;100.00;103062.44;4910823;29;20226;-79
2022/01/13 10:22:20;;;;;;;0.30;0.30;;;1.40;99.90;;;1.03;100.00;103065.44;4884149;29;20724;-79
2022/01/13 10:24:52;;;;;;;0.30;0.30;;;1.40;99.90;;;1.05;100.00;103058.69;4925669;29;20226;-79
2022/01/13 10:27:30;;;;;;;0.45;0.45;;;1.50;99.90;;;1.12;100.00;103057.53;4897672;29;20219;-79
2022/01/13 10:30:26;;;;;;;0.30;0.30;;;1.50;99.90;;;1.12;100.00;103047.13;4885562;29;20207;-79
2022/01/13 10:32:54;;;;;;;0.20;0.20;;;1.50;99.90;;;1.23;100.00;103047.28;4915636;29;20215;-79
2022/01/13 10:35:22;;;;;;;0.30;0.30;;;1.60;99.90;;;1.28;100.00;103037.25;4888142;29;20653;-80
2022/01/13 10:37:58;;;;;;;0.50;0.50;;;1.70;99.90;;;1.24;100.00;103014.31;4886700;29;20207;-83
2022/01/13 10:40:34;;;;;;;0.40;0.40;;;1.70;99.90;;;1.30;100.00;103027.91;4931272;29;20207;-79
2022/01/13 10:43:07;;;;;;;0.28;0.28;;;1.70;99.90;;;1.40;100.00;103022.72;4916840;29;20215;-79
2022/01/13 10:45:55;;;;;;;1.70;1.65;;;1.80;99.90;;;1.42;100.00;103021.16;4928176;29;20234;-79
2022/01/13 10:48:30;;;;;;;0.30;0.30;;;1.80;99.90;;;1.53;100.00;103004.75;4892167;29;20203;-79
2022/01/13 10:51:04;;;;;;;0.40;0.40;;;1.50;99.90;;;1.56;100.00;102996.25;4895856;29;20297;-79
2022/01/13 10:53:39;;;;;;;0.45;0.40;;;1.90;99.90;;;1.75;100.00;103003.97;4885155;29;20219;-79
2022/01/13 10:56:10;;;;;;;0.30;0.30;;;2.00;99.90;;;1.69;100.00;102983.50;4904270;29;20212;-79